Kaiwo Maru — JMMU — position and weather

sailwx.info

Track history (hours):
 
Tides and Currents Weather Stations Pressure Air Temp Water Temp Dewpoint Dewpoint Depression Visibility Wind Speed Wind Dir Waves Ship Positions

Kaiwo Maru (Japan)

Built in 1989. Trains merchant marine cadets for Japan's National Institute for Sea Training.

Ship's website: http://www.kohkun.go.jp/en/ships/kaiwomaru.html

Last reported at 2020-Sep-23 01:58 UTC. Time now 2020-Sep-23 03:41 UTC.
Position N 34°38' E 135°09'.

Length 110.1 m; beam 13.8 m; draft 6 m.

Type: Sailing vessel. MMSI: 431006000.

Date/timePositionNaut miles runAvg speedWind from/ knotsBaromVisibWave heightAir tempDewpointWater temp
2020-Sep-23 01:58N 34°38' E 135°09'0 0.0
2020-Sep-22 22:58N 34°38' E 135°09'0 0.0
2020-Sep-22 16:28N 34°38' E 135°09'0 0.0
2020-Sep-22 15:58N 34°38' E 135°09'0 0.0
2020-Sep-22 15:28N 34°38' E 135°09'0 0.0
2020-Sep-22 11:58N 34°38' E 135°09'0 0.0
2020-Sep-22 10:58N 34°38' E 135°09'0 0.0
2020-Sep-22 09:55N 34°38' E 135°09'0 0.0
2020-Sep-22 09:28N 34°38' E 135°09'0 0.0
2020-Sep-22 07:58N 34°38' E 135°09'0 0.0
2020-Sep-22 07:28N 34°38' E 135°09'0 0.0
2020-Sep-22 06:58N 34°38' E 135°09'0 0.0
2020-Sep-22 05:00N 34°38' E 135°09'3 3.1
2020-Sep-22 04:00N 34°35' E 135°09'4 8.5
2020-Sep-22 03:30N 34°30' E 135°07'  
2020-Sep-18 10:28N 34°16' E 134°58'24 8.1
2020-Sep-18 07:30N 34°38' E 135°11'3 5.8
2020-Sep-18 07:00N 34°41' E 135°12'0 0.0
2020-Sep-18 05:00N 34°41' E 135°12'0 0.0
2020-Sep-18 03:00N 34°41' E 135°12'0 0.0
2020-Sep-18 01:30N 34°41' E 135°12'0 0.0
2020-Sep-18 00:54N 34°41' E 135°12'0 0.0
2020-Sep-17 19:30N 34°41' E 135°12'0 0.0
2020-Sep-17 17:00N 34°41' E 135°12'0 0.0
2020-Sep-17 15:30N 34°41' E 135°12'0 0.0
2020-Sep-17 14:30N 34°41' E 135°12'0 0.0
2020-Sep-17 12:00N 34°41' E 135°12'0 0.0
2020-Sep-17 07:54N 34°41' E 135°12'0 0.0
2020-Sep-17 07:30N 34°41' E 135°12'0 0.0
2020-Sep-17 07:00N 34°41' E 135°12'0 0.0
2020-Sep-17 06:24N 34°41' E 135°12'0 0.0
2020-Sep-17 03:24N 34°41' E 135°12'0 0.0
2020-Sep-17 03:00N 34°41' E 135°12'0 0.0
2020-Sep-17 01:30N 34°41' E 135°12'0 0.0
2020-Sep-17 01:00N 34°41' E 135°12'0 0.0
2020-Sep-17 00:30N 34°41' E 135°12'0 0.0
2020-Sep-17 00:00N 34°41' E 135°12'0 0.0
2020-Sep-16 20:24N 34°41' E 135°12'0 0.0
2020-Sep-16 18:30N 34°41' E 135°12'0 0.0
2020-Sep-16 18:00N 34°41' E 135°12'0 0.0
2020-Sep-16 16:54N 34°41' E 135°12'0 0.0
2020-Sep-16 16:30N 34°41' E 135°12'0 0.0
2020-Sep-16 12:00N 34°41' E 135°12'0 0.0
2020-Sep-16 07:00N 34°41' E 135°12'0 0.0
2020-Sep-16 05:00N 34°41' E 135°12'0 0.0
2020-Sep-16 04:12N 34°41' E 135°12'0 0.0
2020-Sep-16 04:00N 34°41' E 135°12'0 0.0
2020-Sep-16 03:00N 34°41' E 135°12'0 0.0
2020-Sep-16 00:00N 34°41' E 135°12'0 0.0
2020-Sep-15 23:30N 34°41' E 135°12'0 0.0
2020-Sep-15 22:24N 34°41' E 135°12'0 0.0
2020-Sep-15 20:30N 34°41' E 135°12'0 0.0
2020-Sep-15 14:00N 34°41' E 135°12'0 0.0
2020-Sep-15 13:30N 34°41' E 135°12'0 0.0
2020-Sep-15 11:54N 34°41' E 135°12'0 0.0
2020-Sep-15 09:30N 34°41' E 135°12'0 0.0
2020-Sep-15 07:30N 34°41' E 135°12'0 0.0
2020-Sep-15 05:30N 34°41' E 135°12'0 0.0
2020-Sep-15 03:00N 34°41' E 135°12'0 0.1
2020-Sep-15 02:30N 34°41' E 135°12'0 0.0
2020-Sep-14 21:00N 34°41' E 135°12'0 0.0
2020-Sep-14 20:00N 34°41' E 135°12'0 0.0
2020-Sep-14 14:30N 34°41' E 135°12'0 0.0
2020-Sep-14 12:30N 34°41' E 135°12'0 0.0
2020-Sep-14 10:00N 34°41' E 135°12'0 0.0
2020-Sep-14 06:24N 34°41' E 135°12'0 0.0
2020-Sep-14 05:30N 34°41' E 135°12'0 0.0
2020-Sep-14 05:00N 34°41' E 135°12'0 0.0
2020-Sep-14 03:54N 34°41' E 135°12'0 0.1
2020-Sep-14 03:30N 34°41' E 135°12'0 0.1
2020-Sep-14 03:00N 34°41' E 135°12'0 0.0
2020-Sep-14 02:30N 34°41' E 135°12'0 0.0
2020-Sep-14 02:00N 34°41' E 135°12'0 0.0
2020-Sep-14 01:00N 34°41' E 135°12'4 1.6
2020-Sep-13 22:27N 34°37' E 135°12'0 0.0
2020-Sep-13 22:00N 34°37' E 135°12'0 0.1
2020-Sep-13 21:30N 34°37' E 135°12'0 0.0
2020-Sep-13 16:00N 34°37' E 135°12'0 0.0
2020-Sep-13 15:30N 34°37' E 135°12'0 0.0
2020-Sep-13 14:30N 34°37' E 135°12'0 0.0
2020-Sep-13 13:27N 34°37' E 135°12'0 0.0
2020-Sep-13 08:57N 34°37' E 135°12'0 0.1
2020-Sep-13 08:27N 34°37' E 135°12'0 0.0
2020-Sep-13 05:00N 34°37' E 135°12'0 0.0
2020-Sep-13 04:30N 34°37' E 135°12'0 0.0
2020-Sep-13 03:57N 34°37' E 135°12'0 0.0
2020-Sep-13 02:00N 34°37' E 135°12'  
Track history (hours):
 
Tides and Currents Weather Stations Pressure Air Temp Water Temp Dewpoint Dewpoint Depression Visibility Wind Speed Wind Dir Waves Ship Positions

Kaiwo Maru (Japan)

Built in 1989. Trains merchant marine cadets for Japan's National Institute for Sea Training.

Ship's website: http://www.kohkun.go.jp/en/ships/kaiwomaru.html

Last reported at 2020-Sep-23 01:58 UTC. Time now 2020-Sep-23 03:41 UTC.
Position N 34°38' E 135°09'.

Length 110.1 m; beam 13.8 m; draft 6 m.

Type: Sailing vessel. MMSI: 431006000.

Date/timePositionNaut miles runAvg speedWind from/ knotsBaromVisibWave heightAir tempDewpointWater temp
2020-Sep-23 01:58N 34°38' E 135°09'0 0.0
2020-Sep-22 22:58N 34°38' E 135°09'0 0.0
2020-Sep-22 16:28N 34°38' E 135°09'0 0.0
2020-Sep-22 15:58N 34°38' E 135°09'0 0.0
2020-Sep-22 15:28N 34°38' E 135°09'0 0.0
2020-Sep-22 11:58N 34°38' E 135°09'0 0.0
2020-Sep-22 10:58N 34°38' E 135°09'0 0.0
2020-Sep-22 09:55N 34°38' E 135°09'0 0.0
2020-Sep-22 09:28N 34°38' E 135°09'0 0.0
2020-Sep-22 07:58N 34°38' E 135°09'0 0.0
2020-Sep-22 07:28N 34°38' E 135°09'0 0.0
2020-Sep-22 06:58N 34°38' E 135°09'0 0.0
2020-Sep-22 05:00N 34°38' E 135°09'3 3.1
2020-Sep-22 04:00N 34°35' E 135°09'4 8.5
2020-Sep-22 03:30N 34°30' E 135°07'  
2020-Sep-18 10:28N 34°16' E 134°58'24 8.1
2020-Sep-18 07:30N 34°38' E 135°11'3 5.8
2020-Sep-18 07:00N 34°41' E 135°12'0 0.0
2020-Sep-18 05:00N 34°41' E 135°12'0 0.0
2020-Sep-18 03:00N 34°41' E 135°12'0 0.0
2020-Sep-18 01:30N 34°41' E 135°12'0 0.0
2020-Sep-18 00:54N 34°41' E 135°12'0 0.0
2020-Sep-17 19:30N 34°41' E 135°12'0 0.0
2020-Sep-17 17:00N 34°41' E 135°12'0 0.0
2020-Sep-17 15:30N 34°41' E 135°12'0 0.0
2020-Sep-17 14:30N 34°41' E 135°12'0 0.0
2020-Sep-17 12:00N 34°41' E 135°12'0 0.0
2020-Sep-17 07:54N 34°41' E 135°12'0 0.0
2020-Sep-17 07:30N 34°41' E 135°12'0 0.0
2020-Sep-17 07:00N 34°41' E 135°12'0 0.0
2020-Sep-17 06:24N 34°41' E 135°12'0 0.0
2020-Sep-17 03:24N 34°41' E 135°12'0 0.0
2020-Sep-17 03:00N 34°41' E 135°12'0 0.0
2020-Sep-17 01:30N 34°41' E 135°12'0 0.0
2020-Sep-17 01:00N 34°41' E 135°12'0 0.0
2020-Sep-17 00:30N 34°41' E 135°12'0 0.0
2020-Sep-17 00:00N 34°41' E 135°12'0 0.0
2020-Sep-16 20:24N 34°41' E 135°12'0 0.0
2020-Sep-16 18:30N 34°41' E 135°12'0 0.0
2020-Sep-16 18:00N 34°41' E 135°12'0 0.0
2020-Sep-16 16:54N 34°41' E 135°12'0 0.0
2020-Sep-16 16:30N 34°41' E 135°12'0 0.0
2020-Sep-16 12:00N 34°41' E 135°12'0 0.0
2020-Sep-16 07:00N 34°41' E 135°12'0 0.0
2020-Sep-16 05:00N 34°41' E 135°12'0 0.0
2020-Sep-16 04:12N 34°41' E 135°12'0 0.0
2020-Sep-16 04:00N 34°41' E 135°12'0 0.0
2020-Sep-16 03:00N 34°41' E 135°12'0 0.0
2020-Sep-16 00:00N 34°41' E 135°12'0 0.0
2020-Sep-15 23:30N 34°41' E 135°12'0 0.0
2020-Sep-15 22:24N 34°41' E 135°12'0 0.0
2020-Sep-15 20:30N 34°41' E 135°12'0 0.0
2020-Sep-15 14:00N 34°41' E 135°12'0 0.0
2020-Sep-15 13:30N 34°41' E 135°12'0 0.0
2020-Sep-15 11:54N 34°41' E 135°12'0 0.0
2020-Sep-15 09:30N 34°41' E 135°12'0 0.0
2020-Sep-15 07:30N 34°41' E 135°12'0 0.0
2020-Sep-15 05:30N 34°41' E 135°12'0 0.0
2020-Sep-15 03:00N 34°41' E 135°12'0 0.1
2020-Sep-15 02:30N 34°41' E 135°12'0 0.0
2020-Sep-14 21:00N 34°41' E 135°12'0 0.0
2020-Sep-14 20:00N 34°41' E 135°12'0 0.0
2020-Sep-14 14:30N 34°41' E 135°12'0 0.0
2020-Sep-14 12:30N 34°41' E 135°12'0 0.0
2020-Sep-14 10:00N 34°41' E 135°12'0 0.0
2020-Sep-14 06:24N 34°41' E 135°12'0 0.0
2020-Sep-14 05:30N 34°41' E 135°12'0 0.0
2020-Sep-14 05:00N 34°41' E 135°12'0 0.0
2020-Sep-14 03:54N 34°41' E 135°12'0 0.1
2020-Sep-14 03:30N 34°41' E 135°12'0 0.1
2020-Sep-14 03:00N 34°41' E 135°12'0 0.0
2020-Sep-14 02:30N 34°41' E 135°12'0 0.0
2020-Sep-14 02:00N 34°41' E 135°12'0 0.0
2020-Sep-14 01:00N 34°41' E 135°12'4 1.6
2020-Sep-13 22:27N 34°37' E 135°12'0 0.0
2020-Sep-13 22:00N 34°37' E 135°12'0 0.1
2020-Sep-13 21:30N 34°37' E 135°12'0 0.0
2020-Sep-13 16:00N 34°37' E 135°12'0 0.0
2020-Sep-13 15:30N 34°37' E 135°12'0 0.0
2020-Sep-13 14:30N 34°37' E 135°12'0 0.0
2020-Sep-13 13:27N 34°37' E 135°12'0 0.0
2020-Sep-13 08:57N 34°37' E 135°12'0 0.1
2020-Sep-13 08:27N 34°37' E 135°12'0 0.0
2020-Sep-13 05:00N 34°37' E 135°12'0 0.0
2020-Sep-13 04:30N 34°37' E 135°12'0 0.0
2020-Sep-13 03:57N 34°37' E 135°12'0 0.0
2020-Sep-13 02:00N 34°37' E 135°12'  

Dump ship's entire track history